createdAt,value
2023-11-11T00:01:27.746Z,1.25
2023-11-11T00:03:55.291Z,1.30
2023-11-11T00:06:23.303Z,1.27
2023-11-11T00:08:50.787Z,1.30
2023-11-11T00:11:18.308Z,1.50
2023-11-11T00:13:46.724Z,1.10
2023-11-11T00:16:14.307Z,1.13
2023-11-11T00:18:41.818Z,1.67
2023-11-11T00:21:12.262Z,1.60
2023-11-11T00:23:41.106Z,1.40
2023-11-11T00:26:08.952Z,1.70
2023-11-11T00:28:41.582Z,1.58
2023-11-11T00:31:11.687Z,1.10
2023-11-11T00:33:39.778Z,1.92
2023-11-11T00:36:07.676Z,1.27
2023-11-11T00:38:36.360Z,1.30
2023-11-11T00:41:05.722Z,0.93
2023-11-11T00:43:33.175Z,1.20
2023-11-11T00:46:00.635Z,1.20
2023-11-11T00:48:28.832Z,1.67
2023-11-11T00:50:56.340Z,1.27
2023-11-11T00:53:23.782Z,1.70
2023-11-11T00:55:51.234Z,1.02
2023-11-11T00:58:20.373Z,1.40
2023-11-11T01:00:47.850Z,1.25
2023-11-11T01:03:15.432Z,1.20
2023-11-11T01:05:43.227Z,1.13
2023-11-11T01:08:10.819Z,1.00
2023-11-11T01:10:39.270Z,1.08
2023-11-11T01:13:07.247Z,1.10
2023-11-11T01:15:36.458Z,1.05
2023-11-11T01:18:04.316Z,0.90
2023-11-11T01:20:31.948Z,1.23
2023-11-11T01:22:59.448Z,1.35
2023-11-11T01:25:27.274Z,1.10
2023-11-11T01:27:55.039Z,1.25
2023-11-11T01:30:22.598Z,1.70
2023-11-11T01:32:52.618Z,1.30
2023-11-11T01:35:21.732Z,0.82
2023-11-11T01:37:49.226Z,0.93
2023-11-11T01:40:16.681Z,1.10
2023-11-11T01:42:44.200Z,2.17
2023-11-11T01:45:11.864Z,0.90
2023-11-11T01:47:39.817Z,0.90
2023-11-11T01:50:10.361Z,1.08
2023-11-11T01:52:37.997Z,1.50
2023-11-11T01:55:08.909Z,0.70
2023-11-11T01:57:36.637Z,0.95
2023-11-11T02:00:13.281Z,0.85
2023-11-11T02:02:41.446Z,0.90
2023-11-11T02:05:10.513Z,0.95
2023-11-11T02:07:38.069Z,1.00
2023-11-11T02:10:06.269Z,1.38
2023-11-11T02:12:33.833Z,0.98
2023-11-11T02:15:01.932Z,1.20
2023-11-11T02:17:30.299Z,0.80
2023-11-11T02:19:59.877Z,1.02
2023-11-11T02:22:28.938Z,0.80
2023-11-11T02:25:00.907Z,0.80
2023-11-11T02:27:28.489Z,0.90
2023-11-11T02:29:56.005Z,0.82
2023-11-11T02:32:23.631Z,0.98
2023-11-11T02:34:52.168Z,1.20
2023-11-11T02:37:19.611Z,0.80
2023-11-11T02:39:47.285Z,1.02
2023-11-11T02:42:16.174Z,0.73
2023-11-11T02:44:43.635Z,0.80
2023-11-11T02:47:11.152Z,0.85
2023-11-11T02:49:38.923Z,0.85
2023-11-11T02:52:06.961Z,0.88
2023-11-11T02:54:34.517Z,0.88
2023-11-11T02:57:02.201Z,0.80
2023-11-11T02:59:31.108Z,0.90
2023-11-11T03:01:58.602Z,1.10
2023-11-11T03:04:26.161Z,0.95
2023-11-11T03:06:53.772Z,1.38
2023-11-11T03:09:21.314Z,0.88
2023-11-11T03:11:51.156Z,0.90
2023-11-11T03:16:49.137Z,0.90
2023-11-11T03:19:16.621Z,1.07
2023-11-11T03:21:44.135Z,0.73
2023-11-11T03:24:11.907Z,0.88
2023-11-11T03:26:39.421Z,1.27
2023-11-11T03:29:07.620Z,0.90
2023-11-11T03:31:35.120Z,1.08
2023-11-11T03:34:03.952Z,0.95
2023-11-11T03:36:31.447Z,0.70
2023-11-11T03:38:58.959Z,1.00
2023-11-11T03:41:26.509Z,1.13
2023-11-11T03:43:53.961Z,0.90
2023-11-11T03:46:21.751Z,1.05
2023-11-11T03:48:49.265Z,0.90
2023-11-11T03:51:18.112Z,0.90
2023-11-11T03:53:45.601Z,0.80
2023-11-11T03:56:13.077Z,0.95
2023-11-11T03:58:42.014Z,0.73
2023-11-11T04:01:10.127Z,1.10
2023-11-11T04:03:40.736Z,0.95
2023-11-11T04:06:10.910Z,1.13
2023-11-11T04:08:40.717Z,0.68
2023-11-11T04:11:09.177Z,0.90
2023-11-11T04:13:37.264Z,0.70
2023-11-11T04:16:05.011Z,0.85
2023-11-11T04:18:34.381Z,0.90
2023-11-11T04:21:02.085Z,0.60
2023-11-11T04:23:29.677Z,0.70
2023-11-11T04:25:58.610Z,1.15
2023-11-11T04:28:26.184Z,1.10
2023-11-11T04:30:53.639Z,1.00
2023-11-11T04:33:21.640Z,0.90
2023-11-11T04:35:51.752Z,0.70
2023-11-11T04:38:21.003Z,1.00
2023-11-11T04:40:50.926Z,1.02
2023-11-11T04:43:20.382Z,0.70
2023-11-11T04:45:47.956Z,0.60
2023-11-11T04:48:15.771Z,0.88
2023-11-11T04:50:43.478Z,0.93
2023-11-11T04:53:10.971Z,1.60
2023-11-11T04:55:38.467Z,1.20
2023-11-11T04:58:05.985Z,1.02
2023-11-11T05:00:34.811Z,0.90
2023-11-11T05:03:02.732Z,0.80
2023-11-11T05:05:30.444Z,0.82
2023-11-11T05:07:57.898Z,1.05
2023-11-11T05:10:25.481Z,0.77
2023-11-11T05:12:55.200Z,1.00
2023-11-11T05:17:54.261Z,0.90
2023-11-11T05:20:22.179Z,1.00
2023-11-11T05:22:49.810Z,0.90
2023-11-11T05:25:17.620Z,1.25
2023-11-11T05:27:47.472Z,1.40
2023-11-11T05:30:15.189Z,0.90
2023-11-11T05:32:43.379Z,1.05
2023-11-11T05:35:12.458Z,1.05
2023-11-11T05:37:42.143Z,1.20
2023-11-11T05:40:11.558Z,1.13
2023-11-11T05:42:39.144Z,0.95
2023-11-11T05:45:07.923Z,1.20
2023-11-11T05:47:35.455Z,1.05
2023-11-11T05:50:02.999Z,1.30
2023-11-11T05:52:31.968Z,1.05
2023-11-11T05:54:59.425Z,0.70
2023-11-11T05:57:26.951Z,0.80
2023-11-11T05:59:54.741Z,1.25
2023-11-11T06:02:22.233Z,0.68
2023-11-11T06:04:50.257Z,1.05
2023-11-11T06:07:17.791Z,0.90
2023-11-11T06:09:47.007Z,1.25
2023-11-11T06:12:15.538Z,1.02
2023-11-11T06:14:43.099Z,1.10
2023-11-11T06:17:12.424Z,1.50
2023-11-11T06:19:39.854Z,1.52
2023-11-11T06:22:08.530Z,1.48
2023-11-11T06:24:36.260Z,1.20
2023-11-11T06:27:05.331Z,1.27
2023-11-11T06:29:33.000Z,1.10
2023-11-11T06:32:00.963Z,1.17
2023-11-11T06:34:28.487Z,1.73
2023-11-11T06:36:56.005Z,1.08
2023-11-11T06:39:23.657Z,1.50
2023-11-11T06:41:51.499Z,1.23
2023-11-11T06:44:21.335Z,1.98
2023-11-11T06:46:49.082Z,1.70
2023-11-11T06:49:17.767Z,1.40
2023-11-11T06:51:45.414Z,0.90
2023-11-11T06:54:12.925Z,0.70
2023-11-11T06:56:40.904Z,0.70
2023-11-11T06:59:09.328Z,0.77
2023-11-11T07:01:38.591Z,1.00
2023-11-11T07:04:06.361Z,0.90
2023-11-11T07:06:33.960Z,1.40
2023-11-11T07:09:01.439Z,1.13
2023-11-11T07:11:28.965Z,0.55
2023-11-11T07:13:56.729Z,0.88
2023-11-11T07:16:24.263Z,0.30
2023-11-11T07:18:53.124Z,0.35
2023-11-11T07:21:23.073Z,0.30
2023-11-11T07:23:50.734Z,0.60
2023-11-11T07:26:18.338Z,0.40
2023-11-11T07:28:47.083Z,0.45
2023-11-11T07:31:15.732Z,0.60
2023-11-11T07:33:43.659Z,0.38
2023-11-11T07:36:13.147Z,0.38
2023-11-11T07:38:41.420Z,0.50
2023-11-11T07:41:09.161Z,0.35
2023-11-11T07:43:37.009Z,0.30
2023-11-11T07:46:07.493Z,0.25
2023-11-11T07:48:35.592Z,0.40
2023-11-11T07:51:03.669Z,0.55
2023-11-11T07:53:35.662Z,0.50
2023-11-11T07:56:04.459Z,0.32
2023-11-11T08:01:04.608Z,0.30
2023-11-11T08:03:33.709Z,0.38
2023-11-11T08:06:01.334Z,0.50
2023-11-11T08:08:30.827Z,0.40
2023-11-11T08:10:59.923Z,0.88
2023-11-11T08:13:27.449Z,0.97
2023-11-11T08:15:55.165Z,1.33
2023-11-11T08:18:24.105Z,0.85
2023-11-11T08:20:56.526Z,1.90
2023-11-11T08:23:25.399Z,0.70
2023-11-11T08:25:52.859Z,0.60
2023-11-11T08:28:22.286Z,1.50
2023-11-11T08:30:49.899Z,1.73
2023-11-11T08:33:19.085Z,3.05
2023-11-11T08:35:46.935Z,1.23
2023-11-11T08:38:14.552Z,1.35
2023-11-11T08:40:42.983Z,1.02
2023-11-11T08:43:10.867Z,0.70
2023-11-11T08:45:39.825Z,0.70
2023-11-11T08:48:07.509Z,0.70
2023-11-11T08:50:35.061Z,2.92
2023-11-11T08:53:02.538Z,0.98
2023-11-11T08:55:30.096Z,0.80
2023-11-11T08:57:57.707Z,1.50
2023-11-11T09:00:26.530Z,3.85
2023-11-11T09:02:56.107Z,2.87
2023-11-11T09:05:23.791Z,1.30
2023-11-11T09:07:51.344Z,1.15
2023-11-11T09:10:18.896Z,1.10
2023-11-11T09:12:46.624Z,0.90
2023-11-11T09:15:17.967Z,1.25
2023-11-11T09:17:45.854Z,0.43
2023-11-11T09:20:15.516Z,0.60
2023-11-11T09:22:43.378Z,0.60
2023-11-11T09:25:11.371Z,0.40
2023-11-11T09:27:38.918Z,1.48
2023-11-11T09:30:07.575Z,0.80
2023-11-11T09:32:35.234Z,1.10
2023-11-11T09:35:04.042Z,0.63
2023-11-11T09:37:33.954Z,1.10
2023-11-11T09:40:04.832Z,0.60
2023-11-11T09:42:32.607Z,0.70
2023-11-11T09:47:31.503Z,0.90
2023-11-11T09:49:59.077Z,0.75
2023-11-11T09:52:27.813Z,1.10
2023-11-11T09:54:56.935Z,0.82
2023-11-11T09:57:24.898Z,0.68
2023-11-11T09:59:53.429Z,1.10
2023-11-11T10:02:23.523Z,1.38
2023-11-11T10:04:51.114Z,1.05
2023-11-11T10:07:18.832Z,1.40
2023-11-11T10:09:47.750Z,1.42
2023-11-11T10:12:16.656Z,1.60
2023-11-11T10:14:44.168Z,1.60
2023-11-11T10:17:12.474Z,0.70
2023-11-11T10:19:54.024Z,0.70
2023-11-11T10:22:26.514Z,0.55
2023-11-11T10:24:54.314Z,0.57
2023-11-11T10:27:23.383Z,0.70
2023-11-11T10:29:51.514Z,0.73
2023-11-11T10:32:19.317Z,0.90
2023-11-11T10:34:46.935Z,0.88
2023-11-11T10:37:14.695Z,1.15
2023-11-11T10:39:42.143Z,0.80
2023-11-11T10:42:09.663Z,0.88
2023-11-11T10:44:38.534Z,0.90
2023-11-11T10:47:06.487Z,0.80
2023-11-11T10:49:34.863Z,0.88
2023-11-11T10:52:03.189Z,0.70
2023-11-11T10:54:31.446Z,1.25
2023-11-11T10:57:00.098Z,1.30
2023-11-11T10:59:28.654Z,0.95
2023-11-11T11:01:58.213Z,1.38
2023-11-11T11:04:28.154Z,0.85
2023-11-11T11:06:59.524Z,0.70
2023-11-11T11:09:32.401Z,0.68
2023-11-11T11:12:03.701Z,0.70
2023-11-11T11:14:37.377Z,0.60
2023-11-11T11:17:09.664Z,0.50
2023-11-11T11:19:52.112Z,0.68
2023-11-11T11:22:20.648Z,0.43
2023-11-11T11:24:48.553Z,0.50
2023-11-11T11:27:16.245Z,0.85
2023-11-11T11:29:43.731Z,0.82
2023-11-11T11:32:13.384Z,0.52
2023-11-11T11:34:41.805Z,0.60
2023-11-11T11:37:10.909Z,1.65
2023-11-11T11:39:52.725Z,1.50
2023-11-11T11:42:21.484Z,1.20
2023-11-11T11:44:56.285Z,4.57
2023-11-11T11:47:26.041Z,1.15
2023-11-11T11:52:21.751Z,0.80
2023-11-11T11:54:49.379Z,3.13
2023-11-11T11:57:19.087Z,2.33
2023-11-11T11:59:48.127Z,3.03
2023-11-11T12:02:16.635Z,2.50
2023-11-11T12:04:45.587Z,0.93
2023-11-11T12:07:13.735Z,1.08
2023-11-11T12:09:42.114Z,2.70
2023-11-11T12:12:10.414Z,1.58
2023-11-11T12:14:38.814Z,3.20
2023-11-11T12:17:07.231Z,2.20
2023-11-11T12:19:36.519Z,0.90
2023-11-11T12:22:07.705Z,2.08
2023-11-11T12:24:39.722Z,1.60
2023-11-11T12:27:08.927Z,2.58
2023-11-11T12:29:40.080Z,2.70
2023-11-11T12:32:09.339Z,3.45
2023-11-11T12:34:36.981Z,4.88
2023-11-11T12:37:06.183Z,1.50
2023-11-11T12:39:35.144Z,2.80
2023-11-11T12:42:04.680Z,1.67
2023-11-11T12:44:36.905Z,0.70
2023-11-11T12:47:07.866Z,0.98
2023-11-11T12:49:35.525Z,1.02
2023-11-11T12:52:14.547Z,1.20
2023-11-11T12:54:42.168Z,0.80
2023-11-11T12:57:10.313Z,1.48
2023-11-11T12:59:37.792Z,1.42
2023-11-11T13:02:06.038Z,0.70
2023-11-11T13:04:34.274Z,1.50
2023-11-11T13:07:02.815Z,4.32
2023-11-11T13:09:43.762Z,2.58
2023-11-11T13:12:12.004Z,0.93
2023-11-11T13:14:39.631Z,1.35
2023-11-11T13:17:09.065Z,1.67
2023-11-11T13:19:40.501Z,0.90
2023-11-11T13:22:09.968Z,1.73
2023-11-11T13:24:39.080Z,0.50
2023-11-11T13:27:09.007Z,1.30
2023-11-11T13:29:37.007Z,0.60
2023-11-11T13:32:04.828Z,1.20
2023-11-11T13:34:34.543Z,1.10
2023-11-11T13:37:06.171Z,0.52
2023-11-11T13:39:38.738Z,1.10
2023-11-11T13:42:14.856Z,0.90
2023-11-11T13:44:42.408Z,1.17
2023-11-11T13:47:10.313Z,1.30
2023-11-11T13:49:38.183Z,1.75
2023-11-11T13:52:06.122Z,2.03
2023-11-11T13:54:33.630Z,0.93
2023-11-11T13:57:01.135Z,1.20
2023-11-11T13:59:30.027Z,1.60
2023-11-11T14:01:58.781Z,1.10
2023-11-11T14:04:26.865Z,1.45
2023-11-11T14:06:54.962Z,1.25
2023-11-11T14:09:25.329Z,1.30
2023-11-11T14:11:52.809Z,1.13
2023-11-11T14:14:21.042Z,1.00
2023-11-11T14:16:50.383Z,1.35
2023-11-11T14:19:20.970Z,1.05
2023-11-11T14:21:49.381Z,1.35
2023-11-11T14:24:19.863Z,1.40
2023-11-11T14:26:47.841Z,1.90
2023-11-11T14:29:19.071Z,2.85
2023-11-11T14:31:47.114Z,3.25
2023-11-11T14:34:16.783Z,1.40
2023-11-11T14:36:48.131Z,1.02
2023-11-11T14:39:19.999Z,1.20
2023-11-11T14:41:51.865Z,1.85
2023-11-11T14:44:19.331Z,2.80
2023-11-11T14:46:46.919Z,2.75
2023-11-11T14:49:15.779Z,5.22
2023-11-11T14:51:43.286Z,1.90
2023-11-11T14:54:11.132Z,2.15
2023-11-11T14:56:38.829Z,2.88
2023-11-11T14:59:07.197Z,1.55
2023-11-11T15:01:34.872Z,1.60
2023-11-11T15:04:04.408Z,2.25
2023-11-11T15:06:33.623Z,4.50
2023-11-11T15:09:03.109Z,3.10
2023-11-11T15:11:30.853Z,2.70
2023-11-11T15:14:03.702Z,2.80
2023-11-11T15:16:33.246Z,2.55
2023-11-11T15:19:02.241Z,1.88
2023-11-11T15:21:29.767Z,2.25
2023-11-11T15:23:58.872Z,2.00
2023-11-11T15:26:27.034Z,3.25
2023-11-11T15:28:54.709Z,2.60
2023-11-11T15:31:26.225Z,2.50
2023-11-11T15:33:53.974Z,4.25
2023-11-11T15:36:22.149Z,4.28
2023-11-11T15:38:49.820Z,4.07
2023-11-11T15:41:18.881Z,1.85
2023-11-11T15:43:47.765Z,2.20
2023-11-11T15:46:17.077Z,2.40
2023-11-11T15:48:46.218Z,1.77
2023-11-11T15:51:20.301Z,2.20
2023-11-11T15:53:50.920Z,2.20
2023-11-11T15:56:20.192Z,2.60
2023-11-11T15:58:49.407Z,1.80
2023-11-11T16:01:19.089Z,1.75
2023-11-11T16:03:49.096Z,1.95
2023-11-11T16:06:16.803Z,1.20
2023-11-11T16:08:44.368Z,2.55
2023-11-11T16:11:13.026Z,1.58
2023-11-11T16:13:41.894Z,2.08
2023-11-11T16:16:16.647Z,2.33
2023-11-11T16:18:44.140Z,1.80
2023-11-11T16:21:17.964Z,1.45
2023-11-11T16:23:45.483Z,1.13
2023-11-11T16:26:14.598Z,1.70
2023-11-11T16:28:43.461Z,1.00
2023-11-11T16:31:11.169Z,1.58
2023-11-11T16:33:38.799Z,1.30
2023-11-11T16:36:09.739Z,1.05
2023-11-11T16:38:37.195Z,1.05
2023-11-11T16:41:05.920Z,0.90
2023-11-11T16:43:33.606Z,0.70
2023-11-11T16:46:02.445Z,1.00
2023-11-11T16:48:29.974Z,2.30
2023-11-11T16:51:01.883Z,1.67
2023-11-11T16:53:30.030Z,2.17
2023-11-11T16:55:57.801Z,2.58
2023-11-11T16:58:25.375Z,1.52
2023-11-11T17:00:53.253Z,3.20
2023-11-11T17:03:23.039Z,2.17
2023-11-11T17:08:18.167Z,2.92
2023-11-11T17:10:47.973Z,3.10
2023-11-11T17:15:43.299Z,1.88
2023-11-11T17:18:10.878Z,1.90
2023-11-11T17:20:40.131Z,2.13
2023-11-11T17:23:07.636Z,1.30
2023-11-11T17:25:35.189Z,1.40
2023-11-11T17:28:03.537Z,2.05
2023-11-11T17:30:31.003Z,1.75
2023-11-11T17:32:58.851Z,1.20
2023-11-11T17:35:26.440Z,1.23
2023-11-11T17:37:55.322Z,1.10
2023-11-11T17:40:23.203Z,2.03
2023-11-11T17:42:50.663Z,3.47
2023-11-11T17:45:18.887Z,1.05
2023-11-11T17:47:46.623Z,1.17
2023-11-11T17:50:14.266Z,1.50
2023-11-11T17:52:41.785Z,1.40
2023-11-11T17:55:12.738Z,1.30
2023-11-11T17:57:40.338Z,1.35
2023-11-11T18:00:13.522Z,2.70
2023-11-11T18:02:41.149Z,1.73
2023-11-11T18:05:09.115Z,1.50
2023-11-11T18:07:38.390Z,1.23
2023-11-11T18:10:06.321Z,1.50
2023-11-11T18:12:38.034Z,2.88
2023-11-11T18:15:06.741Z,2.50
2023-11-11T18:17:34.372Z,1.00
2023-11-11T18:20:03.127Z,1.30
2023-11-11T18:22:32.543Z,1.57
2023-11-11T18:25:00.702Z,1.10
2023-11-11T18:27:28.467Z,2.90
2023-11-11T18:29:57.312Z,4.07
2023-11-11T18:32:24.842Z,1.50
2023-11-11T18:34:52.332Z,2.05
2023-11-11T18:37:20.499Z,1.20
2023-11-11T18:39:48.009Z,1.40
2023-11-11T18:42:15.562Z,1.48
2023-11-11T18:44:43.198Z,1.90
2023-11-11T18:47:12.983Z,1.92
2023-11-11T18:52:07.884Z,5.55
2023-11-11T18:54:37.241Z,2.70
2023-11-11T18:57:05.089Z,1.42
2023-11-11T18:59:32.880Z,2.10
2023-11-11T19:02:00.507Z,1.73
2023-11-11T19:04:29.323Z,3.88
2023-11-11T19:06:58.281Z,3.88
2023-11-11T19:09:25.830Z,2.67
2023-11-11T19:11:54.222Z,4.38
2023-11-11T19:14:22.832Z,5.50
2023-11-11T19:16:50.503Z,0.90
2023-11-11T19:19:18.035Z,0.90
2023-11-11T19:21:46.869Z,1.35
2023-11-11T19:24:15.532Z,1.88
2023-11-11T19:26:43.387Z,2.10
2023-11-11T19:29:11.076Z,2.53
2023-11-11T19:31:38.637Z,1.33
2023-11-11T19:34:06.461Z,1.92
2023-11-11T19:36:33.993Z,2.35
2023-11-11T19:39:02.786Z,1.40
2023-11-11T19:41:30.244Z,1.30
2023-11-11T19:43:57.784Z,1.10
2023-11-11T19:46:26.556Z,1.27
2023-11-11T19:48:55.194Z,0.98
2023-11-11T19:51:24.581Z,1.00
2023-11-11T19:53:52.320Z,0.80
2023-11-11T19:56:21.539Z,0.93
2023-11-11T19:58:49.321Z,1.52
2023-11-11T20:01:16.899Z,1.75
2023-11-11T20:03:44.450Z,2.85
2023-11-11T20:06:12.045Z,1.48
2023-11-11T20:08:39.591Z,1.35
2023-11-11T20:11:07.131Z,1.90
2023-11-11T20:13:36.089Z,1.10
2023-11-11T20:16:04.054Z,1.20
2023-11-11T20:18:31.615Z,0.85
2023-11-11T20:20:59.201Z,1.02
2023-11-11T20:23:26.921Z,1.38
2023-11-11T20:25:56.294Z,0.90
2023-11-11T20:28:23.766Z,0.93
2023-11-11T20:30:53.097Z,1.30
2023-11-11T20:33:20.594Z,0.80
2023-11-11T20:35:50.793Z,1.13
2023-11-11T20:38:18.262Z,1.35
2023-11-11T20:40:45.772Z,1.40
2023-11-11T20:43:13.284Z,1.38
2023-11-11T20:45:40.801Z,1.30
2023-11-11T20:48:09.634Z,0.98
2023-11-11T20:50:37.158Z,1.08
2023-11-11T20:53:04.762Z,1.15
2023-11-11T20:55:33.789Z,1.40
2023-11-11T20:58:02.115Z,1.60
2023-11-11T21:00:30.397Z,1.40
2023-11-11T21:02:58.145Z,1.30
2023-11-11T21:05:28.676Z,1.27
2023-11-11T21:07:59.042Z,1.00
2023-11-11T21:10:28.629Z,1.42
2023-11-11T21:12:57.526Z,1.00
2023-11-11T21:15:24.995Z,0.93
2023-11-11T21:17:52.528Z,1.02
2023-11-11T21:20:20.099Z,1.40
2023-11-11T21:22:51.358Z,1.00
2023-11-11T21:25:20.038Z,1.02
2023-11-11T21:27:47.725Z,0.90
2023-11-11T21:30:15.639Z,3.88
2023-11-11T21:32:43.309Z,0.90
2023-11-11T21:35:11.301Z,1.02
2023-11-11T21:37:38.930Z,1.05
2023-11-11T21:40:12.008Z,1.17
2023-11-11T21:42:39.635Z,1.30
2023-11-11T21:45:07.537Z,1.13
2023-11-11T21:47:35.050Z,1.35
2023-11-11T21:50:02.924Z,1.40
2023-11-11T21:52:30.408Z,1.70
2023-11-11T21:54:57.869Z,1.85
2023-11-11T21:57:29.489Z,2.05
2023-11-11T21:59:57.963Z,1.58
2023-11-11T22:02:25.520Z,2.00
2023-11-11T22:04:53.169Z,1.60
2023-11-11T22:07:20.772Z,1.60
2023-11-11T22:09:48.327Z,1.70
2023-11-11T22:12:16.165Z,3.25
2023-11-11T22:14:44.982Z,3.38
2023-11-11T22:17:12.510Z,4.78
2023-11-11T22:19:40.665Z,3.25
2023-11-11T22:22:08.210Z,2.00
2023-11-11T22:24:35.754Z,2.25
2023-11-11T22:27:03.434Z,2.40
2023-11-11T22:29:30.983Z,2.60
2023-11-11T22:31:59.916Z,7.13
2023-11-11T22:34:29.964Z,5.50
2023-11-11T22:36:57.430Z,4.80
2023-11-11T22:39:24.951Z,5.40
2023-11-11T22:41:52.477Z,4.80
2023-11-11T22:44:20.105Z,4.28
2023-11-11T22:46:48.009Z,3.38
2023-11-11T22:49:16.911Z,3.50
2023-11-11T22:51:45.629Z,3.37
2023-11-11T22:54:13.080Z,6.05
2023-11-11T22:56:40.772Z,4.90
2023-11-11T22:59:14.065Z,4.20
2023-11-11T23:01:41.768Z,2.15
2023-11-11T23:04:09.366Z,1.50
2023-11-11T23:06:38.246Z,1.15
2023-11-11T23:09:08.112Z,0.88
2023-11-11T23:14:02.984Z,1.10
2023-11-11T23:16:30.542Z,1.52
2023-11-11T23:18:58.220Z,1.27
2023-11-11T23:21:25.868Z,1.30
2023-11-11T23:23:55.112Z,1.60
2023-11-11T23:26:22.574Z,1.17
2023-11-11T23:28:50.578Z,1.65
2023-11-11T23:31:19.026Z,1.27
2023-11-11T23:33:46.486Z,1.48
2023-11-11T23:36:15.644Z,1.90
2023-11-11T23:38:43.422Z,1.83
2023-11-11T23:41:12.575Z,1.70
2023-11-11T23:43:40.227Z,1.65
2023-11-11T23:46:07.844Z,1.90
2023-11-11T23:48:35.673Z,2.10
2023-11-11T23:51:05.262Z,2.00
2023-11-11T23:53:34.089Z,4.22
2023-11-11T23:56:01.609Z,2.70
2023-11-11T23:58:30.444Z,2.83
